createdAt,value
2023-01-03T00:01:36.336Z,101706.94
2023-01-03T00:04:05.801Z,101713.25
2023-01-03T00:06:36.987Z,101717.25
2023-01-03T00:09:09.401Z,101716.47
2023-01-03T00:11:57.375Z,101725.31
2023-01-03T00:14:29.712Z,101707.47
2023-01-03T00:17:00.921Z,101725.25
2023-01-03T00:19:35.462Z,101723.06
2023-01-03T00:22:04.416Z,101727.00
2023-01-03T00:24:33.192Z,101729.84
2023-01-03T00:27:01.621Z,101730.84
2023-01-03T00:29:31.612Z,101741.25
2023-01-03T00:31:59.936Z,101743.25
2023-01-03T00:34:28.867Z,101739.72
2023-01-03T00:36:57.711Z,101728.00
2023-01-03T00:39:26.342Z,101751.78
2023-01-03T00:41:55.251Z,101757.91
2023-01-03T00:44:23.714Z,101754.44
2023-01-03T00:46:53.525Z,101748.47
2023-01-03T00:49:21.928Z,101754.66
2023-01-03T00:51:50.512Z,101753.13
2023-01-03T00:54:18.833Z,101755.66
2023-01-03T00:56:49.427Z,101761.72
2023-01-03T00:59:20.424Z,101757.53
2023-01-03T01:01:51.939Z,101765.00
2023-01-03T01:04:26.495Z,101763.28
2023-01-03T01:06:57.221Z,101773.94
2023-01-03T01:09:29.170Z,101792.75
2023-01-03T01:11:58.029Z,101787.28
2023-01-03T01:14:28.986Z,101783.00
2023-01-03T01:17:00.999Z,101786.38
2023-01-03T01:19:34.652Z,101797.19
2023-01-03T01:22:03.631Z,101787.25
2023-01-03T01:24:32.345Z,101799.66
2023-01-03T01:27:01.023Z,101788.25
2023-01-03T01:29:29.437Z,101816.06
2023-01-03T01:31:57.762Z,101798.19
2023-01-03T01:34:26.184Z,101820.34
2023-01-03T01:36:55.849Z,101825.53
2023-01-03T01:39:26.931Z,101825.06
2023-01-03T01:42:19.713Z,101817.47
2023-01-03T01:44:56.229Z,101833.97
2023-01-03T01:47:42.495Z,101833.16
2023-01-03T01:50:22.512Z,101845.28
2023-01-03T01:53:00.848Z,101841.97
2023-01-03T01:55:36.642Z,101849.31
2023-01-03T01:58:06.656Z,101849.75
2023-01-03T02:00:36.254Z,101841.53
2023-01-03T02:03:05.923Z,101847.69
2023-01-03T02:05:38.995Z,101844.63
2023-01-03T02:08:08.822Z,101852.31
2023-01-03T02:11:14.050Z,101856.13
2023-01-03T02:13:56.528Z,101848.13
2023-01-03T02:17:02.223Z,101872.78
2023-01-03T02:20:17.401Z,101870.16
2023-01-03T02:23:41.324Z,101877.28
2023-01-03T02:26:39.744Z,101878.09
2023-01-03T02:30:02.079Z,101885.81
2023-01-03T02:32:40.839Z,101882.66
2023-01-03T02:35:21.586Z,101885.63
2023-01-03T02:38:00.981Z,101880.81
2023-01-03T02:40:39.521Z,101881.81
2023-01-03T02:43:14.274Z,101887.28
2023-01-03T02:46:08.397Z,101899.56
2023-01-03T02:48:49.602Z,101903.25
2023-01-03T02:51:24.620Z,101900.78
2023-01-03T02:53:53.146Z,101902.59
2023-01-03T02:56:28.638Z,101906.47
2023-01-03T02:59:02.659Z,101907.44
2023-01-03T03:01:34.947Z,101913.78
2023-01-03T03:04:06.894Z,101903.28
2023-01-03T03:06:47.075Z,101910.44
2023-01-03T03:09:15.351Z,101905.59
2023-01-03T03:12:02.731Z,101913.59
2023-01-03T03:14:40.253Z,101917.19
2023-01-03T03:17:16.900Z,101920.94
2023-01-03T03:20:06.550Z,101924.47
2023-01-03T03:23:01.107Z,101923.41
2023-01-03T03:25:36.986Z,101924.47
2023-01-03T03:28:27.576Z,101937.63
2023-01-03T03:31:00.260Z,101934.53
2023-01-03T03:33:35.105Z,101933.56
2023-01-03T03:36:11.464Z,101945.31
2023-01-03T03:38:44.700Z,101941.88
2023-01-03T03:41:39.946Z,101934.53
2023-01-03T03:44:37.994Z,101946.22
2023-01-03T03:47:17.186Z,101946.03
2023-01-03T03:49:51.828Z,101936.09
2023-01-03T03:52:28.169Z,101943.19
2023-01-03T03:55:07.390Z,101954.81
2023-01-03T03:57:41.260Z,101950.56
2023-01-03T04:00:17.206Z,101949.75
2023-01-03T04:02:48.207Z,101947.97
2023-01-03T04:05:22.347Z,101950.63
2023-01-03T04:07:51.040Z,101954.44
2023-01-03T04:10:20.745Z,101950.84
2023-01-03T04:12:50.342Z,101957.69
2023-01-03T04:15:19.753Z,101955.09
2023-01-03T04:17:47.990Z,101956.28
2023-01-03T04:20:19.002Z,101958.84
2023-01-03T04:22:47.309Z,101966.59
2023-01-03T04:25:15.764Z,101964.75
2023-01-03T04:27:43.985Z,101970.69
2023-01-03T04:30:13.946Z,101975.13
2023-01-03T04:32:42.296Z,101967.50
2023-01-03T04:35:10.897Z,101972.69
2023-01-03T04:37:40.560Z,101975.53
2023-01-03T04:40:10.568Z,101978.13
2023-01-03T04:42:56.391Z,101979.94
2023-01-03T04:45:24.739Z,101980.03
2023-01-03T04:47:54.690Z,101980.25
2023-01-03T04:50:22.948Z,101971.75
2023-01-03T04:52:52.554Z,101980.63
2023-01-03T04:55:21.362Z,101997.25
2023-01-03T04:57:49.876Z,101993.72
2023-01-03T05:00:18.939Z,101999.06
2023-01-03T05:02:47.214Z,102007.44
2023-01-03T05:05:15.801Z,102007.69
2023-01-03T05:07:44.519Z,102007.22
2023-01-03T05:10:14.187Z,102002.97
2023-01-03T05:12:42.418Z,102010.44
2023-01-03T05:15:11.870Z,102017.78
2023-01-03T05:17:40.190Z,102017.03
2023-01-03T05:20:27.430Z,102015.25
2023-01-03T05:23:13.046Z,102018.75
2023-01-03T05:25:51.852Z,102027.19
2023-01-03T05:28:24.242Z,102030.81
2023-01-03T05:30:52.539Z,102031.84
2023-01-03T05:33:20.825Z,102037.88
2023-01-03T05:35:49.236Z,102035.00
2023-01-03T05:38:17.940Z,102040.88
2023-01-03T05:40:47.674Z,102040.09
2023-01-03T05:43:15.955Z,102045.31
2023-01-03T05:45:44.588Z,102042.72
2023-01-03T05:48:12.896Z,102039.16
2023-01-03T05:50:41.147Z,102044.34
2023-01-03T05:53:09.502Z,102046.25
2023-01-03T05:55:38.475Z,102045.47
2023-01-03T05:58:08.986Z,102047.16
2023-01-03T06:00:37.226Z,102051.75
2023-01-03T06:03:05.608Z,102044.91
2023-01-03T06:05:34.136Z,102057.28
2023-01-03T06:08:03.116Z,102060.16
2023-01-03T06:10:31.346Z,102069.94
2023-01-03T06:12:59.683Z,102063.59
2023-01-03T06:15:29.323Z,102072.72
2023-01-03T06:17:58.944Z,102071.84
2023-01-03T06:20:28.600Z,102071.56
2023-01-03T06:22:57.529Z,102081.28
2023-01-03T06:25:26.833Z,102092.09
2023-01-03T06:27:56.843Z,102098.50
2023-01-03T06:30:25.170Z,102100.72
2023-01-03T06:32:54.917Z,102105.16
2023-01-03T06:35:23.190Z,102108.41
2023-01-03T06:37:51.541Z,102118.22
2023-01-03T06:40:20.141Z,102119.13
2023-01-03T06:42:48.510Z,102128.03
2023-01-03T06:45:34.890Z,102134.56
2023-01-03T06:48:25.449Z,102122.34
2023-01-03T06:51:11.270Z,102132.84
2023-01-03T06:53:43.307Z,102133.19
2023-01-03T06:56:12.368Z,102146.78
2023-01-03T06:58:40.682Z,102140.19
2023-01-03T07:01:09.118Z,102145.44
2023-01-03T07:03:38.819Z,102155.75
2023-01-03T07:06:07.872Z,102154.25
2023-01-03T07:08:36.697Z,102154.69
2023-01-03T07:11:04.996Z,102160.31
2023-01-03T07:13:50.978Z,102159.84
2023-01-03T07:16:21.718Z,102164.91
2023-01-03T07:18:55.340Z,102175.75
2023-01-03T07:21:24.604Z,102185.56
2023-01-03T07:23:54.913Z,102181.72
2023-01-03T07:26:25.164Z,102184.16
2023-01-03T07:28:54.055Z,102190.19
2023-01-03T07:31:22.579Z,102197.16
2023-01-03T07:33:53.241Z,102199.81
2023-01-03T07:36:23.077Z,102199.19
2023-01-03T07:38:51.428Z,102198.16
2023-01-03T07:41:20.041Z,102212.09
2023-01-03T07:43:49.796Z,102211.41
2023-01-03T07:46:20.888Z,102218.34
2023-01-03T07:48:53.530Z,102206.09
2023-01-03T07:51:23.676Z,102214.75
2023-01-03T07:53:54.247Z,102217.16
2023-01-03T07:56:25.497Z,102214.34
2023-01-03T07:58:54.025Z,102222.56
2023-01-03T08:01:24.770Z,102235.69
2023-01-03T08:03:54.706Z,102236.78
2023-01-03T08:06:24.963Z,102233.06
2023-01-03T08:09:07.841Z,102234.75
2023-01-03T08:11:53.859Z,102230.31
2023-01-03T08:14:26.133Z,102238.16
2023-01-03T08:16:55.722Z,102233.75
2023-01-03T08:19:26.592Z,102230.84
2023-01-03T08:21:54.885Z,102233.66
2023-01-03T08:24:23.217Z,102236.13
2023-01-03T08:26:51.576Z,102240.50
2023-01-03T08:29:23.381Z,102234.28
2023-01-03T08:31:56.747Z,102230.63
2023-01-03T08:34:31.038Z,102240.00
2023-01-03T08:37:07.298Z,102238.19
2023-01-03T08:39:43.433Z,102250.66
2023-01-03T08:42:15.721Z,102253.00
2023-01-03T08:44:45.135Z,102255.59
2023-01-03T08:47:16.006Z,102252.84
2023-01-03T08:49:46.000Z,102253.63
2023-01-03T08:52:14.584Z,102265.91
2023-01-03T08:54:44.095Z,102278.16
2023-01-03T08:57:12.438Z,102275.03
2023-01-03T08:59:40.934Z,102270.44
2023-01-03T09:02:09.416Z,102275.44
2023-01-03T09:04:38.473Z,102277.06
2023-01-03T09:07:08.209Z,102281.44
2023-01-03T09:09:36.634Z,102277.06
2023-01-03T09:12:05.279Z,102273.41
2023-01-03T09:14:33.872Z,102279.41
2023-01-03T09:17:02.173Z,102270.38
2023-01-03T09:19:30.571Z,102267.63
2023-01-03T09:21:58.953Z,102273.75
2023-01-03T09:24:28.732Z,102274.56
2023-01-03T09:26:57.070Z,102277.69
2023-01-03T09:29:25.579Z,102291.72
2023-01-03T09:31:53.997Z,102293.91
2023-01-03T09:34:22.313Z,102290.88
2023-01-03T09:36:50.657Z,102291.44
2023-01-03T09:39:19.026Z,102298.16
2023-01-03T09:42:10.320Z,102301.09
2023-01-03T09:44:40.577Z,102299.13
2023-01-03T09:47:16.761Z,102300.63
2023-01-03T09:50:18.443Z,102304.91
2023-01-03T09:53:01.213Z,102305.94
2023-01-03T09:56:01.093Z,102305.88
2023-01-03T09:58:49.461Z,102306.69
2023-01-03T10:01:57.369Z,102300.78
2023-01-03T10:05:09.274Z,102308.16
2023-01-03T10:08:02.162Z,102306.84
2023-01-03T10:10:45.873Z,102303.25
2023-01-03T10:13:30.993Z,102311.53
2023-01-03T10:16:14.280Z,102312.25
2023-01-03T10:19:18.050Z,102308.59
2023-01-03T10:22:01.391Z,102315.31
2023-01-03T10:24:39.913Z,102312.81
2023-01-03T10:27:14.512Z,102318.81
2023-01-03T10:29:43.364Z,102319.25
2023-01-03T10:33:09.608Z,102312.91
2023-01-03T10:35:38.359Z,102305.38
2023-01-03T10:38:06.831Z,102312.22
2023-01-03T10:40:40.905Z,102301.28
2023-01-03T10:43:16.282Z,102306.69
2023-01-03T10:45:54.829Z,102308.69
2023-01-03T10:48:25.348Z,102303.41
2023-01-03T10:50:54.420Z,102302.34
2023-01-03T10:53:24.468Z,102302.78
2023-01-03T10:55:56.907Z,102298.94
2023-01-03T10:58:35.859Z,102297.75
2023-01-03T11:01:21.489Z,102300.31
2023-01-03T11:04:15.967Z,102295.72
2023-01-03T11:07:01.681Z,102303.28
2023-01-03T11:09:37.383Z,102304.53
2023-01-03T11:12:14.519Z,102308.84
2023-01-03T11:14:52.206Z,102304.47
2023-01-03T11:17:22.754Z,102303.88
2023-01-03T11:19:54.165Z,102288.91
2023-01-03T11:22:39.974Z,102298.88
2023-01-03T11:25:28.391Z,102302.72
2023-01-03T11:28:47.301Z,102296.97
2023-01-03T11:31:39.161Z,102285.16
2023-01-03T11:34:27.037Z,102286.72
2023-01-03T11:37:10.962Z,102298.78
2023-01-03T11:40:00.597Z,102295.47
2023-01-03T11:42:40.639Z,102283.63
2023-01-03T11:45:58.522Z,102288.88
2023-01-03T11:48:59.437Z,102286.72
2023-01-03T11:51:37.391Z,102285.69
2023-01-03T11:54:28.067Z,102287.13
2023-01-03T11:56:59.637Z,102279.63
2023-01-03T12:00:03.845Z,102270.19
2023-01-03T12:03:12.708Z,102273.22
2023-01-03T12:05:53.843Z,102282.78
2023-01-03T12:08:49.612Z,102286.25
2023-01-03T12:11:48.426Z,102282.25
2023-01-03T12:14:25.777Z,102282.00
2023-01-03T12:17:03.662Z,102275.16
2023-01-03T12:19:41.619Z,102282.00
2023-01-03T12:22:23.645Z,102271.81
2023-01-03T12:25:04.827Z,102270.84
2023-01-03T12:27:43.257Z,102272.34
2023-01-03T12:30:32.754Z,102277.09
2023-01-03T12:33:14.781Z,102282.75
2023-01-03T12:35:51.620Z,102283.88
2023-01-03T12:38:30.064Z,102298.47
2023-01-03T12:41:07.924Z,102289.34
2023-01-03T12:43:47.059Z,102289.63
2023-01-03T12:46:20.551Z,102295.09
2023-01-03T12:49:01.549Z,102294.63
2023-01-03T12:51:30.289Z,102294.72
2023-01-03T12:54:22.844Z,102295.75
2023-01-03T12:57:28.170Z,102287.94
2023-01-03T13:00:29.049Z,102291.50
2023-01-03T13:03:04.465Z,102292.59
2023-01-03T13:05:43.590Z,102302.72
2023-01-03T13:08:25.328Z,102291.69
2023-01-03T13:11:00.234Z,102306.56
2023-01-03T13:13:29.048Z,102299.63
2023-01-03T13:15:58.982Z,102298.00
2023-01-03T13:18:37.146Z,102299.56
2023-01-03T13:21:52.013Z,102298.81
2023-01-03T13:24:43.034Z,102299.81
2023-01-03T13:27:36.133Z,102297.31
2023-01-03T13:30:21.594Z,102289.38
2023-01-03T13:33:04.915Z,102294.22
2023-01-03T13:35:37.710Z,102292.19
2023-01-03T13:38:29.444Z,102287.13
2023-01-03T13:41:17.739Z,102287.00
2023-01-03T13:43:51.759Z,102292.53
2023-01-03T13:46:25.832Z,102287.19
2023-01-03T13:48:59.695Z,102297.69
2023-01-03T13:51:48.681Z,102296.97
2023-01-03T13:55:33.890Z,102304.78
2023-01-03T13:58:02.842Z,102305.88
2023-01-03T14:00:32.515Z,102303.25
2023-01-03T14:03:40.705Z,102302.53
2023-01-03T14:06:58.690Z,102302.09
2023-01-03T14:09:58.002Z,102305.81
2023-01-03T14:13:28.650Z,102313.06
2023-01-03T14:16:23.784Z,102312.84
2023-01-03T14:19:08.659Z,102301.56
2023-01-03T14:21:46.513Z,102294.81
2023-01-03T14:24:26.088Z,102300.44
2023-01-03T14:26:55.460Z,102306.25
2023-01-03T14:29:27.632Z,102303.66
2023-01-03T14:32:00.246Z,102314.78
2023-01-03T14:34:36.913Z,102305.56
2023-01-03T14:37:13.657Z,102320.06
2023-01-03T14:39:52.854Z,102311.94
2023-01-03T14:42:21.194Z,102322.16
2023-01-03T14:44:56.467Z,102318.25
2023-01-03T14:47:35.847Z,102331.72
2023-01-03T14:50:05.470Z,102321.63
2023-01-03T14:52:39.892Z,102322.75
2023-01-03T14:55:16.011Z,102322.38
2023-01-03T14:57:47.095Z,102337.69
2023-01-03T15:00:25.338Z,102334.28
2023-01-03T15:02:59.663Z,102332.91
2023-01-03T15:05:32.050Z,102335.88
2023-01-03T15:08:21.529Z,102343.28
2023-01-03T15:10:55.232Z,102334.59
2023-01-03T15:13:29.710Z,102341.78
2023-01-03T15:16:01.324Z,102339.38
2023-01-03T15:18:36.650Z,102341.94
2023-01-03T15:21:06.859Z,102344.56
2023-01-03T15:23:41.437Z,102337.63
2023-01-03T15:26:23.111Z,102335.97
2023-01-03T15:28:54.945Z,102339.44
2023-01-03T15:31:37.115Z,102341.50
2023-01-03T15:34:15.983Z,102341.44
2023-01-03T15:36:50.405Z,102353.88
2023-01-03T15:39:23.408Z,102363.06
2023-01-03T15:45:11.578Z,102357.41
2023-01-03T15:47:43.329Z,102364.78
2023-01-03T15:50:18.959Z,102358.91
2023-01-03T15:52:47.540Z,102366.16
2023-01-03T15:55:18.763Z,102363.53
2023-01-03T15:57:53.819Z,102361.75
2023-01-03T16:00:26.117Z,102363.63
2023-01-03T16:02:54.519Z,102359.28
2023-01-03T16:05:23.523Z,102355.81
2023-01-03T16:07:52.381Z,102353.19
2023-01-03T16:10:22.644Z,102351.34
2023-01-03T16:12:51.073Z,102353.28
2023-01-03T16:15:23.677Z,102344.63
2023-01-03T16:17:52.924Z,102342.09
2023-01-03T16:20:21.745Z,102347.47
2023-01-03T16:23:01.069Z,102336.84
2023-01-03T16:25:31.628Z,102347.38
2023-01-03T16:27:59.894Z,102350.13
2023-01-03T16:30:29.653Z,102343.22
2023-01-03T16:32:58.829Z,102346.03
2023-01-03T16:35:28.062Z,102347.84
2023-01-03T16:37:56.477Z,102347.84
2023-01-03T16:40:24.784Z,102347.13
2023-01-03T16:42:54.470Z,102336.56
2023-01-03T16:45:23.569Z,102340.75
2023-01-03T16:47:53.776Z,102348.72
2023-01-03T16:50:22.736Z,102349.75
2023-01-03T16:52:55.709Z,102348.94
2023-01-03T16:55:29.797Z,102347.25
2023-01-03T16:58:00.455Z,102343.66
2023-01-03T17:00:31.586Z,102336.63
2023-01-03T17:03:01.013Z,102332.31
2023-01-03T17:05:36.124Z,102334.06
2023-01-03T17:08:09.720Z,102328.91
2023-01-03T17:10:42.043Z,102330.75
2023-01-03T17:13:33.762Z,102335.22
2023-01-03T17:16:04.575Z,102336.25
2023-01-03T17:18:37.271Z,102335.44
2023-01-03T17:21:12.895Z,102340.66
2023-01-03T17:23:43.238Z,102342.38
2023-01-03T17:26:16.358Z,102342.31
2023-01-03T17:28:47.644Z,102342.22
2023-01-03T17:31:17.942Z,102349.28
2023-01-03T17:33:46.315Z,102345.75
2023-01-03T17:36:16.330Z,102350.16
2023-01-03T17:38:45.942Z,102349.31
2023-01-03T17:41:20.590Z,102351.91
2023-01-03T17:43:50.591Z,102351.91
2023-01-03T17:46:42.019Z,102355.31
2023-01-03T17:49:27.972Z,102349.00
2023-01-03T17:51:59.968Z,102349.69
2023-01-03T17:54:32.295Z,102346.88
2023-01-03T17:57:01.370Z,102347.47
2023-01-03T17:59:31.857Z,102348.09
2023-01-03T18:02:00.659Z,102352.94
2023-01-03T18:05:05.339Z,102352.53
2023-01-03T18:07:25.800Z,102353.88
2023-01-03T18:09:56.804Z,102352.78
2023-01-03T18:12:26.863Z,102349.84
2023-01-03T18:14:56.626Z,102352.16
2023-01-03T18:17:30.782Z,102353.81
2023-01-03T18:20:00.961Z,102351.97
2023-01-03T18:22:30.461Z,102347.34
2023-01-03T18:24:59.334Z,102349.78
2023-01-03T18:27:29.702Z,102349.59
2023-01-03T18:29:59.460Z,102354.63
2023-01-03T18:32:30.461Z,102341.03
2023-01-03T18:34:59.964Z,102329.28
2023-01-03T18:37:34.910Z,102330.09
2023-01-03T18:40:04.375Z,102318.63
2023-01-03T18:42:50.370Z,102315.97
2023-01-03T18:45:20.000Z,102313.22
2023-01-03T18:47:48.284Z,102305.25
2023-01-03T18:50:20.418Z,102298.13
2023-01-03T18:52:50.431Z,102290.13
2023-01-03T18:55:22.315Z,102290.84
2023-01-03T18:57:53.087Z,102282.81
2023-01-03T19:00:26.282Z,102276.56
2023-01-03T19:02:55.427Z,102284.38
2023-01-03T19:05:24.097Z,102282.50
2023-01-03T19:07:53.845Z,102280.66
2023-01-03T19:10:26.169Z,102278.84
2023-01-03T19:13:00.606Z,102271.75
2023-01-03T19:15:30.308Z,102269.03
2023-01-03T19:17:59.104Z,102257.38
2023-01-03T19:20:27.978Z,102256.41
2023-01-03T19:22:57.383Z,102259.06
2023-01-03T19:25:31.475Z,102259.91
2023-01-03T19:28:03.901Z,102254.53
2023-01-03T19:30:39.242Z,102257.16
2023-01-03T19:33:14.553Z,102255.34
2023-01-03T19:35:43.947Z,102245.50
2023-01-03T19:38:12.272Z,102249.94
2023-01-03T19:40:45.049Z,102240.19
2023-01-03T19:43:22.290Z,102235.69
2023-01-03T19:45:51.961Z,102234.72
2023-01-03T19:48:23.231Z,102223.78
2023-01-03T19:50:53.079Z,102224.66
2023-01-03T19:53:21.551Z,102221.88
2023-01-03T19:55:51.975Z,102221.00
2023-01-03T19:58:29.333Z,102219.34
2023-01-03T20:00:59.935Z,102214.25
2023-01-03T20:03:32.367Z,102218.03
2023-01-03T20:06:00.932Z,102204.09
2023-01-03T20:08:29.509Z,102212.25
2023-01-03T20:10:58.922Z,102210.50
2023-01-03T20:13:29.091Z,102207.97
2023-01-03T20:16:01.907Z,102203.25
2023-01-03T20:18:36.262Z,102198.63
2023-01-03T20:21:18.124Z,102202.75
2023-01-03T20:23:53.880Z,102190.47
2023-01-03T20:26:27.861Z,102185.94
2023-01-03T20:28:58.381Z,102190.31
2023-01-03T20:31:29.100Z,102188.53
2023-01-03T20:33:57.507Z,102181.41
2023-01-03T20:36:33.139Z,102177.13
2023-01-03T20:39:01.779Z,102177.81
2023-01-03T20:41:37.237Z,102181.41
2023-01-03T20:44:08.422Z,102171.75
2023-01-03T20:46:39.726Z,102170.97
2023-01-03T20:49:19.245Z,102161.28
2023-01-03T20:51:47.592Z,102165.56
2023-01-03T20:54:16.503Z,102168.00
2023-01-03T20:56:45.844Z,102153.78
2023-01-03T20:59:17.872Z,102159.03
2023-01-03T21:01:49.133Z,102152.81
2023-01-03T21:04:18.144Z,102157.25
2023-01-03T21:06:48.780Z,102151.16
2023-01-03T21:09:16.074Z,102149.53
2023-01-03T21:11:44.482Z,102149.34
2023-01-03T21:14:14.147Z,102139.47
2023-01-03T21:16:44.551Z,102132.63
2023-01-03T21:19:17.755Z,102138.81
2023-01-03T21:21:48.817Z,102131.66
2023-01-03T21:24:19.581Z,102122.81
2023-01-03T21:26:47.895Z,102126.50
2023-01-03T21:29:16.844Z,102122.19
2023-01-03T21:31:45.930Z,102117.66
2023-01-03T21:34:20.343Z,102121.03
2023-01-03T21:36:49.391Z,102109.53
2023-01-03T21:39:17.844Z,102112.00
2023-01-03T21:42:03.480Z,102104.81
2023-01-03T21:44:31.749Z,102108.03
2023-01-03T21:47:01.190Z,102102.31
2023-01-03T21:49:30.940Z,102106.59
2023-01-03T21:51:59.217Z,102100.34
2023-01-03T21:54:27.959Z,102100.97
2023-01-03T21:56:56.278Z,102098.84
2023-01-03T21:59:24.534Z,102094.34
2023-01-03T22:02:10.184Z,102084.53
2023-01-03T22:04:39.973Z,102075.53
2023-01-03T22:07:08.232Z,102079.84
2023-01-03T22:09:54.216Z,102074.31
2023-01-03T22:12:22.529Z,102072.53
2023-01-03T22:14:50.846Z,102077.75
2023-01-03T22:17:19.154Z,102071.25
2023-01-03T22:19:48.807Z,102066.59
2023-01-03T22:22:17.093Z,102068.44
2023-01-03T22:24:45.402Z,102064.56
2023-01-03T22:27:13.869Z,102062.81
2023-01-03T22:29:42.432Z,102068.13
2023-01-03T22:32:10.953Z,102055.69
2023-01-03T22:34:39.717Z,102047.31
2023-01-03T22:37:09.599Z,102044.53
2023-01-03T22:39:37.843Z,102039.34
2023-01-03T22:42:06.363Z,102038.75
2023-01-03T22:44:34.734Z,102039.88
2023-01-03T22:47:03.812Z,102031.13
2023-01-03T22:49:32.578Z,102027.84
2023-01-03T22:52:00.979Z,102019.78
2023-01-03T22:54:30.816Z,102025.88
2023-01-03T22:56:59.358Z,102021.34
2023-01-03T22:59:27.902Z,102022.22
2023-01-03T23:01:56.361Z,102009.47
2023-01-03T23:04:26.845Z,102003.66
2023-01-03T23:06:55.883Z,102001.38
2023-01-03T23:09:25.554Z,101989.44
2023-01-03T23:12:12.800Z,101985.97
2023-01-03T23:14:41.073Z,101974.50
2023-01-03T23:17:27.358Z,101971.09
2023-01-03T23:19:55.698Z,101971.19
2023-01-03T23:22:24.074Z,101968.47
2023-01-03T23:24:52.332Z,101968.47
2023-01-03T23:27:22.004Z,101954.94
2023-01-03T23:29:50.274Z,101948.69
2023-01-03T23:32:18.561Z,101942.47
2023-01-03T23:34:46.781Z,101925.72
2023-01-03T23:37:15.070Z,101925.63
2023-01-03T23:39:44.163Z,101921.06
2023-01-03T23:42:12.452Z,101909.16
2023-01-03T23:44:42.243Z,101909.28
2023-01-03T23:47:12.226Z,101904.88
2023-01-03T23:49:41.192Z,101905.53
2023-01-03T23:52:09.857Z,101907.38
2023-01-03T23:54:38.165Z,101902.91
2023-01-03T23:57:06.465Z,101898.19
2023-01-03T23:59:34.740Z,101901.16
